createdAt,value
2017-08-29T00:00:57.727Z,100308.23
2017-08-29T00:03:23.815Z,100310.73
2017-08-29T00:05:49.935Z,100297.73
2017-08-29T00:08:16.052Z,100302.25
2017-08-29T00:10:42.123Z,100302.59
2017-08-29T00:13:08.237Z,100297.72
2017-08-29T00:15:34.564Z,100305.16
2017-08-29T00:18:00.680Z,100302.23
2017-08-29T00:20:27.090Z,100304.33
2017-08-29T00:22:53.223Z,100302.48
2017-08-29T00:25:19.313Z,100302.69
2017-08-29T00:27:45.403Z,100303.05
2017-08-29T00:30:11.756Z,100301.72
2017-08-29T00:32:38.663Z,100302.70
2017-08-29T00:35:04.762Z,100302.69
2017-08-29T00:37:30.866Z,100296.70
2017-08-29T00:39:56.938Z,100299.98
2017-08-29T00:42:23.045Z,100290.59
2017-08-29T00:44:49.168Z,100294.85
2017-08-29T00:47:15.254Z,100291.94
2017-08-29T00:49:41.345Z,100296.95
2017-08-29T00:52:07.459Z,100303.31
2017-08-29T00:54:33.538Z,100294.34
2017-08-29T00:56:59.652Z,100295.33
2017-08-29T00:59:25.764Z,100290.98
2017-08-29T01:01:51.861Z,100290.47
2017-08-29T01:04:17.959Z,100288.37
2017-08-29T01:06:44.096Z,100290.70
2017-08-29T01:09:10.210Z,100279.67
2017-08-29T01:11:36.303Z,100282.33
2017-08-29T01:14:02.430Z,100281.41
2017-08-29T01:16:28.539Z,100280.20
2017-08-29T01:18:54.621Z,100282.55
2017-08-29T01:21:20.737Z,100278.94
2017-08-29T01:23:46.802Z,100280.35
2017-08-29T01:26:12.933Z,100274.75
2017-08-29T01:28:39.070Z,100279.00
2017-08-29T01:31:05.215Z,100277.52
2017-08-29T01:33:31.298Z,100272.80
2017-08-29T01:35:57.410Z,100272.58
2017-08-29T01:38:23.544Z,100275.97
2017-08-29T01:40:49.641Z,100276.10
2017-08-29T01:43:15.762Z,100272.20
2017-08-29T01:45:41.834Z,100262.42
2017-08-29T01:48:07.936Z,100256.94
2017-08-29T01:50:34.063Z,100257.59
2017-08-29T01:53:00.152Z,100261.92
2017-08-29T01:55:26.222Z,100265.02
2017-08-29T01:57:52.321Z,100256.40
2017-08-29T02:00:18.398Z,100254.14
2017-08-29T02:02:44.513Z,100257.85
2017-08-29T02:05:10.638Z,100253.40
2017-08-29T02:07:36.744Z,100257.20
2017-08-29T02:10:02.840Z,100254.43
2017-08-29T02:12:28.968Z,100253.44
2017-08-29T02:14:55.021Z,100253.59
2017-08-29T02:17:21.094Z,100251.60
2017-08-29T02:19:47.210Z,100244.84
2017-08-29T02:22:13.288Z,100242.09
2017-08-29T02:24:39.389Z,100236.14
2017-08-29T02:27:05.694Z,100240.90
2017-08-29T02:29:31.801Z,100232.66
2017-08-29T02:31:57.893Z,100237.48
2017-08-29T02:34:24.006Z,100239.22
2017-08-29T02:36:50.079Z,100237.02
2017-08-29T02:39:16.136Z,100245.11
2017-08-29T02:41:42.250Z,100234.72
2017-08-29T02:44:08.319Z,100239.51
2017-08-29T02:46:34.401Z,100235.67
2017-08-29T02:49:00.513Z,100234.33
2017-08-29T02:51:26.613Z,100222.94
2017-08-29T02:53:52.675Z,100226.34
2017-08-29T02:56:18.819Z,100227.09
2017-08-29T02:58:44.898Z,100225.65
2017-08-29T03:01:10.987Z,100213.78
2017-08-29T03:03:37.093Z,100207.59
2017-08-29T03:06:03.193Z,100214.38
2017-08-29T03:08:29.273Z,100207.77
2017-08-29T03:10:55.365Z,100208.90
2017-08-29T03:13:21.450Z,100206.30
2017-08-29T03:15:47.513Z,100208.72
2017-08-29T03:18:13.613Z,100207.95
2017-08-29T03:20:39.705Z,100207.77
2017-08-29T03:23:05.807Z,100208.84
2017-08-29T03:25:31.912Z,100204.64
2017-08-29T03:27:57.979Z,100207.46
2017-08-29T03:30:24.290Z,100211.89
2017-08-29T03:32:50.391Z,100205.42
2017-08-29T03:35:16.476Z,100206.72
2017-08-29T03:37:42.596Z,100211.23
2017-08-29T03:40:08.713Z,100205.91
2017-08-29T03:42:34.793Z,100205.73
2017-08-29T03:45:00.878Z,100208.88
2017-08-29T03:47:26.979Z,100208.88
2017-08-29T03:49:53.061Z,100206.41
2017-08-29T03:52:19.150Z,100206.16
2017-08-29T03:54:45.276Z,100204.89
2017-08-29T03:57:11.349Z,100207.48
2017-08-29T03:59:37.461Z,100202.18
2017-08-29T04:02:03.565Z,100205.10
2017-08-29T04:04:29.619Z,100203.84
2017-08-29T04:06:55.712Z,100202.29
2017-08-29T04:09:21.827Z,100207.92
2017-08-29T04:11:47.948Z,100202.74
2017-08-29T04:14:14.035Z,100197.84
2017-08-29T04:16:40.205Z,100207.21
2017-08-29T04:19:06.309Z,100203.94
2017-08-29T04:21:32.375Z,100208.36
2017-08-29T04:23:58.667Z,100209.44
2017-08-29T04:26:24.745Z,100211.59
2017-08-29T04:28:50.841Z,100215.73
2017-08-29T04:31:16.999Z,100202.86
2017-08-29T04:33:43.119Z,100206.23
2017-08-29T04:36:09.235Z,100207.00
2017-08-29T04:38:35.380Z,100207.42
2017-08-29T04:41:01.460Z,100204.74
2017-08-29T04:43:27.575Z,100207.13
2017-08-29T04:45:53.699Z,100206.82
2017-08-29T04:48:19.790Z,100211.02
2017-08-29T04:50:45.889Z,100212.45
2017-08-29T04:53:12.019Z,100206.45
2017-08-29T04:55:38.119Z,100211.13
2017-08-29T04:58:04.194Z,100214.53
2017-08-29T05:00:30.301Z,100209.45
2017-08-29T05:02:56.420Z,100208.75
2017-08-29T05:05:22.524Z,100209.56
2017-08-29T05:07:48.655Z,100206.88
2017-08-29T05:10:14.736Z,100209.78
2017-08-29T05:12:40.801Z,100206.58
2017-08-29T05:15:06.926Z,100204.67
2017-08-29T05:17:33.020Z,100211.82
2017-08-29T05:19:59.100Z,100213.41
2017-08-29T05:22:25.201Z,100218.44
2017-08-29T05:24:51.434Z,100209.56
2017-08-29T05:27:17.553Z,100211.77
2017-08-29T05:29:43.721Z,100211.58
2017-08-29T05:32:09.787Z,100218.73
2017-08-29T05:34:35.909Z,100221.30
2017-08-29T05:37:02.031Z,100216.20
2017-08-29T05:39:28.135Z,100220.30
2017-08-29T05:41:54.257Z,100209.94
2017-08-29T05:44:20.382Z,100213.37
2017-08-29T05:46:46.475Z,100211.88
2017-08-29T05:49:12.557Z,100206.20
2017-08-29T05:51:38.681Z,100210.89
2017-08-29T05:54:04.766Z,100207.63
2017-08-29T05:56:30.851Z,100210.66
2017-08-29T05:58:56.966Z,100209.31
2017-08-29T06:01:23.067Z,100211.62
2017-08-29T06:03:49.166Z,100206.03
2017-08-29T06:06:15.286Z,100199.55
2017-08-29T06:08:41.386Z,100203.27
2017-08-29T06:11:07.440Z,100202.19
2017-08-29T06:13:33.575Z,100201.59
2017-08-29T06:15:59.682Z,100198.20
2017-08-29T06:18:25.787Z,100196.28
2017-08-29T06:20:51.911Z,100195.77
2017-08-29T06:23:18.002Z,100191.02
2017-08-29T06:25:44.081Z,100193.98
2017-08-29T06:28:10.189Z,100191.76
2017-08-29T06:30:36.282Z,100184.02
2017-08-29T06:33:02.412Z,100184.77
2017-08-29T06:35:28.481Z,100195.15
2017-08-29T06:37:54.589Z,100185.97
2017-08-29T06:40:20.721Z,100185.02
2017-08-29T06:42:46.800Z,100179.98
2017-08-29T06:45:12.937Z,100179.36
2017-08-29T06:47:39.063Z,100171.34
2017-08-29T06:50:05.241Z,100169.89
2017-08-29T06:52:31.312Z,100169.19
2017-08-29T06:54:57.400Z,100169.88
2017-08-29T06:57:23.526Z,100171.91
2017-08-29T06:59:49.684Z,100171.01
2017-08-29T07:02:15.801Z,100167.55
2017-08-29T07:04:41.918Z,100169.27
2017-08-29T07:07:08.033Z,100167.16
2017-08-29T07:09:34.118Z,100165.06
2017-08-29T07:12:00.300Z,100164.68
2017-08-29T07:14:26.432Z,100166.05
2017-08-29T07:16:52.565Z,100154.67
2017-08-29T07:19:18.699Z,100154.16
2017-08-29T07:21:44.774Z,100153.55
2017-08-29T07:24:10.873Z,100156.23
2017-08-29T07:26:36.972Z,100155.27
2017-08-29T07:29:03.107Z,100158.22
2017-08-29T07:31:29.310Z,100157.27
2017-08-29T07:33:55.436Z,100162.70
2017-08-29T07:36:21.555Z,100160.95
2017-08-29T07:38:47.684Z,100156.84
2017-08-29T07:41:13.788Z,100151.70
2017-08-29T07:43:39.844Z,100154.05
2017-08-29T07:46:05.988Z,100140.08
2017-08-29T07:48:32.092Z,100143.21
2017-08-29T07:50:58.208Z,100148.36
2017-08-29T07:53:24.336Z,100144.00
2017-08-29T07:55:50.478Z,100143.69
2017-08-29T07:58:16.594Z,100148.63
2017-08-29T08:00:42.804Z,100146.84
2017-08-29T08:03:08.912Z,100144.16
2017-08-29T08:05:35.027Z,100136.95
2017-08-29T08:08:01.180Z,100134.88
2017-08-29T08:10:27.257Z,100132.72
2017-08-29T08:12:53.394Z,100127.84
2017-08-29T08:15:19.623Z,100119.36
2017-08-29T08:17:45.750Z,100121.66
2017-08-29T08:20:11.865Z,100122.13
2017-08-29T08:22:37.980Z,100118.79
2017-08-29T08:25:04.099Z,100120.42
2017-08-29T08:27:30.241Z,100116.31
2017-08-29T08:29:56.357Z,100115.97
2017-08-29T08:32:29.422Z,100109.98
2017-08-29T08:34:55.557Z,100110.67
2017-08-29T08:37:21.815Z,100106.23
2017-08-29T08:39:47.908Z,100103.18
2017-08-29T08:42:14.002Z,100102.83
2017-08-29T08:44:40.109Z,100099.16
2017-08-29T08:47:06.181Z,100103.08
2017-08-29T08:49:32.289Z,100103.81
2017-08-29T08:51:58.385Z,100100.88
2017-08-29T08:54:24.491Z,100102.36
2017-08-29T08:56:50.660Z,100089.93
2017-08-29T08:59:16.793Z,100093.56
2017-08-29T09:01:42.929Z,100086.45
2017-08-29T09:04:09.044Z,100091.36
2017-08-29T09:06:35.178Z,100083.55
2017-08-29T09:09:01.297Z,100090.38
2017-08-29T09:11:27.420Z,100085.95
2017-08-29T09:13:53.545Z,100084.02
2017-08-29T09:16:19.752Z,100083.06
2017-08-29T09:18:46.644Z,100082.73
2017-08-29T09:21:12.743Z,100076.81
2017-08-29T09:23:38.844Z,100080.47
2017-08-29T09:26:04.940Z,100076.87
2017-08-29T09:28:31.070Z,100074.17
2017-08-29T09:30:57.202Z,100072.33
2017-08-29T09:33:23.280Z,100069.30
2017-08-29T09:35:49.404Z,100069.10
2017-08-29T09:38:15.510Z,100065.61
2017-08-29T09:40:41.593Z,100058.97
2017-08-29T09:43:07.834Z,100057.45
2017-08-29T09:45:33.952Z,100054.06
2017-08-29T09:48:00.022Z,100059.72
2017-08-29T09:50:26.089Z,100056.98
2017-08-29T09:52:52.166Z,100057.91
2017-08-29T09:55:18.304Z,100055.30
2017-08-29T09:57:44.410Z,100048.78
2017-08-29T10:00:10.538Z,100053.57
2017-08-29T10:02:36.611Z,100045.78
2017-08-29T10:05:02.731Z,100045.44
2017-08-29T10:07:28.869Z,100047.61
2017-08-29T10:09:54.996Z,100036.82
2017-08-29T10:12:21.084Z,100043.31
2017-08-29T10:14:47.216Z,100035.16
2017-08-29T10:17:13.304Z,100031.06
2017-08-29T10:19:39.394Z,100033.44
2017-08-29T10:22:05.494Z,100024.83
2017-08-29T10:24:31.588Z,100026.39
2017-08-29T10:26:57.697Z,100026.53
2017-08-29T10:29:23.822Z,100015.88
2017-08-29T10:31:49.930Z,100009.53
2017-08-29T10:34:16.054Z,100023.56
2017-08-29T10:36:42.171Z,100016.84
2017-08-29T10:39:08.248Z,100011.77
2017-08-29T10:41:34.390Z,100013.91
2017-08-29T10:44:00.471Z,100003.33
2017-08-29T10:46:26.594Z,100005.22
2017-08-29T10:48:52.744Z,100007.02
2017-08-29T10:51:18.846Z,100004.64
2017-08-29T10:53:44.956Z,100002.10
2017-08-29T10:56:11.082Z,100005.84
2017-08-29T10:58:37.188Z,100002.36
2017-08-29T11:01:03.324Z,99993.84
2017-08-29T11:03:29.441Z,99996.67
2017-08-29T11:05:55.608Z,99996.77
2017-08-29T11:08:21.697Z,99990.41
2017-08-29T11:10:47.873Z,99990.20
2017-08-29T11:13:14.019Z,99988.48
2017-08-29T11:15:40.137Z,99987.44
2017-08-29T11:18:06.246Z,99991.61
2017-08-29T11:20:32.416Z,99984.02
2017-08-29T11:22:58.585Z,99986.16
2017-08-29T11:25:24.718Z,99978.33
2017-08-29T11:27:50.827Z,99976.95
2017-08-29T11:30:16.915Z,99978.87
2017-08-29T11:32:42.969Z,99980.77
2017-08-29T11:35:09.061Z,99989.08
2017-08-29T11:37:35.198Z,99991.21
2017-08-29T11:40:01.314Z,99987.05
2017-08-29T11:42:27.398Z,99991.23
2017-08-29T11:44:53.538Z,99981.87
2017-08-29T11:47:19.670Z,99983.88
2017-08-29T11:49:45.774Z,99976.34
2017-08-29T11:52:11.913Z,99983.30
2017-08-29T11:54:38.052Z,99986.23
2017-08-29T11:57:05.087Z,99979.29
2017-08-29T11:59:31.196Z,99982.52
2017-08-29T12:01:57.291Z,99976.22
2017-08-29T12:04:23.405Z,99975.71
2017-08-29T12:06:49.834Z,99967.02
2017-08-29T12:09:15.926Z,99970.13
2017-08-29T12:11:42.056Z,99963.98
2017-08-29T12:14:08.146Z,99956.55
2017-08-29T12:16:34.254Z,99960.53
2017-08-29T12:19:00.338Z,99969.24
2017-08-29T12:21:26.445Z,99966.12
2017-08-29T12:23:52.583Z,99953.60
2017-08-29T12:26:18.672Z,99955.62
2017-08-29T12:28:44.777Z,99952.23
2017-08-29T12:31:10.874Z,99954.98
2017-08-29T12:33:36.969Z,99941.45
2017-08-29T12:36:03.084Z,99945.09
2017-08-29T12:38:29.170Z,99939.84
2017-08-29T12:40:55.345Z,99942.18
2017-08-29T12:43:21.539Z,99944.92
2017-08-29T12:45:48.002Z,99944.44
2017-08-29T12:48:14.107Z,99940.44
2017-08-29T12:50:40.207Z,99937.09
2017-08-29T12:53:06.321Z,99938.13
2017-08-29T12:55:32.446Z,99941.70
2017-08-29T12:57:58.524Z,99930.83
2017-08-29T13:00:24.644Z,99924.42
2017-08-29T13:02:50.736Z,99928.97
2017-08-29T13:05:16.876Z,99920.38
2017-08-29T13:07:42.987Z,99917.54
2017-08-29T13:10:09.114Z,99916.87
2017-08-29T13:12:35.233Z,99915.57
2017-08-29T13:15:01.383Z,99906.52
2017-08-29T13:17:27.484Z,99902.94
2017-08-29T13:19:53.787Z,99911.02
2017-08-29T13:22:19.861Z,99907.59
2017-08-29T13:27:18.696Z,99906.33
2017-08-29T13:29:44.818Z,99905.90
2017-08-29T13:32:10.921Z,99899.28
2017-08-29T13:34:37.080Z,99903.30
2017-08-29T13:37:03.166Z,99895.19
2017-08-29T13:39:29.272Z,99903.42
2017-08-29T13:41:55.392Z,99899.58
2017-08-29T13:44:21.520Z,99891.00
2017-08-29T13:46:47.640Z,99890.84
2017-08-29T13:49:13.870Z,99879.03
2017-08-29T13:51:39.968Z,99880.60
2017-08-29T13:54:06.118Z,99882.90
2017-08-29T13:56:32.252Z,99879.29
2017-08-29T13:58:58.373Z,99879.84
2017-08-29T14:01:24.458Z,99882.34
2017-08-29T14:03:50.626Z,99881.28
2017-08-29T14:06:16.760Z,99880.22
2017-08-29T14:08:42.944Z,99879.55
2017-08-29T14:11:09.029Z,99876.93
2017-08-29T14:13:35.104Z,99870.36
2017-08-29T14:16:01.208Z,99874.75
2017-08-29T14:18:27.306Z,99876.90
2017-08-29T14:20:53.419Z,99862.66
2017-08-29T14:23:19.488Z,99864.70
2017-08-29T14:25:45.555Z,99859.21
2017-08-29T14:28:11.681Z,99866.42
2017-08-29T14:30:37.775Z,99857.44
2017-08-29T14:33:03.874Z,99850.84
2017-08-29T14:35:29.924Z,99852.76
2017-08-29T14:37:56.016Z,99853.17
2017-08-29T14:40:22.096Z,99856.38
2017-08-29T14:42:48.234Z,99853.20
2017-08-29T14:45:14.351Z,99849.70
2017-08-29T14:47:59.299Z,99848.92
2017-08-29T14:50:25.354Z,99846.03
2017-08-29T14:52:51.429Z,99852.45
2017-08-29T14:55:17.553Z,99840.91
2017-08-29T14:57:43.669Z,99842.39
2017-08-29T15:00:09.809Z,99839.13
2017-08-29T15:02:35.877Z,99841.61
2017-08-29T15:05:01.974Z,99847.20
2017-08-29T15:07:28.075Z,99822.23
2017-08-29T15:09:54.135Z,99827.20
2017-08-29T15:12:20.215Z,99827.67
2017-08-29T15:14:46.295Z,99818.30
2017-08-29T15:17:12.362Z,99817.40
2017-08-29T15:19:38.400Z,99819.14
2017-08-29T15:22:05.685Z,99822.58
2017-08-29T15:24:31.827Z,99818.78
2017-08-29T15:26:57.910Z,99814.95
2017-08-29T15:29:24.017Z,99814.95
2017-08-29T15:31:50.136Z,99808.27
2017-08-29T15:34:16.199Z,99807.16
2017-08-29T15:36:42.273Z,99808.66
2017-08-29T15:39:08.374Z,99802.77
2017-08-29T15:41:34.469Z,99800.65
2017-08-29T15:44:00.546Z,99798.32
2017-08-29T15:46:26.640Z,99796.81
2017-08-29T15:48:52.707Z,99790.25
2017-08-29T15:51:18.791Z,99788.25
2017-08-29T15:53:44.911Z,99787.52
2017-08-29T15:56:10.967Z,99782.98
2017-08-29T15:58:37.111Z,99785.13
2017-08-29T16:01:03.219Z,99786.19
2017-08-29T16:03:29.323Z,99787.74
2017-08-29T16:05:55.418Z,99779.45
2017-08-29T16:08:21.571Z,99780.27
2017-08-29T16:10:47.675Z,99774.34
2017-08-29T16:13:13.766Z,99778.19
2017-08-29T16:15:39.870Z,99772.58
2017-08-29T16:18:05.990Z,99764.49
2017-08-29T16:20:32.219Z,99766.20
2017-08-29T16:22:58.317Z,99765.30
2017-08-29T16:25:24.368Z,99765.00
2017-08-29T16:27:50.474Z,99762.20
2017-08-29T16:30:16.578Z,99761.41
2017-08-29T16:32:42.664Z,99758.91
2017-08-29T16:35:08.755Z,99754.69
2017-08-29T16:37:34.855Z,99750.01
2017-08-29T16:40:00.938Z,99747.31
2017-08-29T16:42:27.032Z,99749.59
2017-08-29T16:44:53.136Z,99749.45
2017-08-29T16:47:19.227Z,99746.47
2017-08-29T16:49:45.329Z,99742.87
2017-08-29T16:52:13.332Z,99745.62
2017-08-29T16:54:39.444Z,99747.50
2017-08-29T16:57:05.524Z,99748.96
2017-08-29T16:59:32.470Z,99747.47
2017-08-29T17:01:58.579Z,99749.27
2017-08-29T17:04:24.708Z,99745.34
2017-08-29T17:06:50.840Z,99745.23
2017-08-29T17:09:16.991Z,99749.96
2017-08-29T17:11:44.070Z,99744.87
2017-08-29T17:14:10.154Z,99744.61
2017-08-29T17:16:36.256Z,99752.71
2017-08-29T17:19:02.566Z,99741.08
2017-08-29T17:21:28.657Z,99741.52
2017-08-29T17:23:54.870Z,99748.73
2017-08-29T17:26:20.992Z,99747.00
2017-08-29T17:28:47.062Z,99754.20
2017-08-29T17:31:13.157Z,99752.52
2017-08-29T17:33:39.270Z,99748.02
2017-08-29T17:36:05.332Z,99747.02
2017-08-29T17:38:31.473Z,99748.73
2017-08-29T17:40:57.635Z,99746.63
2017-08-29T17:43:23.753Z,99746.09
2017-08-29T17:45:49.877Z,99749.41
2017-08-29T17:48:15.981Z,99750.97
2017-08-29T17:50:42.097Z,99749.63
2017-08-29T17:53:08.203Z,99759.26
2017-08-29T17:55:34.402Z,99761.72
2017-08-29T17:58:00.497Z,99760.25
2017-08-29T18:00:26.565Z,99759.16
2017-08-29T18:02:52.680Z,99764.72
2017-08-29T18:05:18.835Z,99763.33
2017-08-29T18:07:45.990Z,99767.38
2017-08-29T18:10:12.137Z,99769.09
2017-08-29T18:12:38.205Z,99770.06
2017-08-29T18:15:04.367Z,99775.99
2017-08-29T18:17:30.470Z,99776.02
2017-08-29T18:19:56.791Z,99780.99
2017-08-29T18:22:22.952Z,99781.69
2017-08-29T18:24:49.070Z,99776.25
2017-08-29T18:27:15.199Z,99787.18
2017-08-29T18:29:41.291Z,99788.84
2017-08-29T18:32:07.437Z,99791.86
2017-08-29T18:34:33.535Z,99795.09
2017-08-29T18:36:59.705Z,99796.38
2017-08-29T18:39:25.811Z,99794.33
2017-08-29T18:41:51.912Z,99799.05
2017-08-29T18:44:18.006Z,99795.84
2017-08-29T18:46:44.139Z,99791.42
2017-08-29T18:49:11.175Z,99787.38
2017-08-29T18:51:37.310Z,99789.22
2017-08-29T18:54:03.381Z,99785.44
2017-08-29T18:56:29.476Z,99792.23
2017-08-29T18:58:55.564Z,99790.25
2017-08-29T19:01:21.688Z,99784.30
2017-08-29T19:03:47.777Z,99788.42
2017-08-29T19:06:13.921Z,99791.34
2017-08-29T19:08:40.016Z,99790.92
2017-08-29T19:11:06.136Z,99791.36
2017-08-29T19:13:32.365Z,99788.47
2017-08-29T19:15:58.847Z,99796.42
2017-08-29T19:18:24.954Z,99795.13
2017-08-29T19:20:51.046Z,99791.87
2017-08-29T19:23:17.135Z,99790.05
2017-08-29T19:25:44.201Z,99787.89
2017-08-29T19:28:21.579Z,99795.97
2017-08-29T19:30:47.655Z,99791.45
2017-08-29T19:33:13.773Z,99794.95
2017-08-29T19:35:39.870Z,99790.52
2017-08-29T19:38:05.935Z,99790.07
2017-08-29T19:40:32.047Z,99792.72
2017-08-29T19:42:58.147Z,99787.34
2017-08-29T19:45:24.267Z,99793.43
2017-08-29T19:47:50.378Z,99798.05
2017-08-29T19:50:16.515Z,99803.62
2017-08-29T19:52:43.591Z,99800.42
2017-08-29T19:55:09.703Z,99801.49
2017-08-29T19:57:35.763Z,99801.17
2017-08-29T20:00:01.880Z,99801.88
2017-08-29T20:02:27.995Z,99798.58
2017-08-29T20:04:54.093Z,99800.51
2017-08-29T20:07:20.165Z,99795.77
2017-08-29T20:09:46.273Z,99794.87
2017-08-29T20:12:12.397Z,99795.86
2017-08-29T20:14:38.513Z,99800.59
2017-08-29T20:17:04.675Z,99798.84
2017-08-29T20:19:30.807Z,99800.03
2017-08-29T20:21:56.893Z,99798.55
2017-08-29T20:24:23.310Z,99799.92
2017-08-29T20:26:49.439Z,99794.22
2017-08-29T20:29:15.530Z,99794.05
2017-08-29T20:31:41.640Z,99796.03
2017-08-29T20:34:07.771Z,99793.98
2017-08-29T20:36:33.956Z,99796.81
2017-08-29T20:39:00.059Z,99792.47
2017-08-29T20:41:26.144Z,99797.30
2017-08-29T20:43:52.277Z,99792.70
2017-08-29T20:46:18.348Z,99799.50
2017-08-29T20:48:44.431Z,99798.89
2017-08-29T20:51:10.530Z,99794.26
2017-08-29T20:53:36.614Z,99797.81
2017-08-29T20:56:02.800Z,99792.59
2017-08-29T20:58:28.901Z,99800.50
2017-08-29T21:00:54.996Z,99799.69
2017-08-29T21:03:21.102Z,99803.03
2017-08-29T21:05:47.215Z,99801.69
2017-08-29T21:08:13.274Z,99802.13
2017-08-29T21:10:39.352Z,99800.69
2017-08-29T21:13:05.458Z,99797.55
2017-08-29T21:15:31.530Z,99792.98
2017-08-29T21:17:57.744Z,99798.15
2017-08-29T21:20:23.900Z,99792.66
2017-08-29T21:22:50.026Z,99790.38
2017-08-29T21:25:16.219Z,99794.63
2017-08-29T21:27:42.320Z,99794.30
2017-08-29T21:30:08.432Z,99794.30
2017-08-29T21:32:34.696Z,99792.02
2017-08-29T21:35:00.804Z,99792.02
2017-08-29T21:37:26.904Z,99788.60
2017-08-29T21:39:53.005Z,99783.00
2017-08-29T21:42:19.081Z,99787.56
2017-08-29T21:44:45.263Z,99786.22
2017-08-29T21:47:11.334Z,99786.52
2017-08-29T21:49:37.440Z,99785.08
2017-08-29T21:52:03.552Z,99786.10
2017-08-29T21:54:29.630Z,99786.20
2017-08-29T21:56:55.696Z,99787.55
2017-08-29T21:59:21.799Z,99787.66
2017-08-29T22:01:47.942Z,99783.51
2017-08-29T22:04:14.051Z,99778.49
2017-08-29T22:06:40.114Z,99789.20
2017-08-29T22:09:06.180Z,99783.70
2017-08-29T22:11:32.282Z,99789.29
2017-08-29T22:13:58.450Z,99785.75
2017-08-29T22:16:24.519Z,99782.21
2017-08-29T22:18:50.630Z,99782.53
2017-08-29T22:21:16.713Z,99777.09
2017-08-29T22:23:42.797Z,99781.47
2017-08-29T22:26:08.904Z,99777.42
2017-08-29T22:28:35.010Z,99781.14
2017-08-29T22:31:01.126Z,99771.70
2017-08-29T22:33:27.233Z,99773.17
2017-08-29T22:35:53.364Z,99774.81
2017-08-29T22:38:19.533Z,99782.59
2017-08-29T22:40:45.665Z,99782.07
2017-08-29T22:43:11.810Z,99778.30
2017-08-29T22:45:37.902Z,99782.44
2017-08-29T22:48:04.007Z,99781.70
2017-08-29T22:50:30.092Z,99790.70
2017-08-29T22:52:56.164Z,99786.84
2017-08-29T22:55:22.461Z,99783.53
2017-08-29T22:57:48.537Z,99788.09
2017-08-29T23:00:15.051Z,99787.23
2017-08-29T23:02:41.212Z,99787.00
2017-08-29T23:05:07.317Z,99796.84
2017-08-29T23:07:33.453Z,99795.41
2017-08-29T23:09:59.596Z,99799.03
2017-08-29T23:12:25.664Z,99793.97
2017-08-29T23:14:51.783Z,99788.44
2017-08-29T23:17:17.865Z,99793.13
2017-08-29T23:19:43.973Z,99795.08
2017-08-29T23:22:10.096Z,99791.45
2017-08-29T23:24:36.178Z,99787.41
2017-08-29T23:27:02.294Z,99793.09
2017-08-29T23:29:28.751Z,99793.81
2017-08-29T23:31:55.048Z,99794.82
2017-08-29T23:34:21.129Z,99792.02
2017-08-29T23:36:47.229Z,99790.04
2017-08-29T23:39:13.314Z,99787.61
2017-08-29T23:41:39.416Z,99785.01
2017-08-29T23:44:06.319Z,99781.97
2017-08-29T23:46:32.450Z,99774.88
2017-08-29T23:48:58.534Z,99773.17
2017-08-29T23:51:24.645Z,99772.60
2017-08-29T23:53:50.708Z,99776.43
2017-08-29T23:56:16.782Z,99775.78
2017-08-29T23:58:43.734Z,99771.05
